Terminal Aerodrome Forecast
Issued by NWS

Home | Current Version | Previous Version | Text Only | Print | Product List | Glossary On
Versions: 1 2 3 4 5 6 7 8 9 10 11 12 13 14 15 16 17 18 19
000
FTUS43 KPAH 292200 AAA
TAFCGI
TAF AMD
KCGI 292200Z 2922/3018 20007KT P6SM SCT050
      TEMPO 2922/2924 3SM TSRA OVC040CB
     FM300100 18004KT P6SM BKN080 PROB30 3007/3012 4SM -TSRA
      BKN060CB
     FM301200 14004KT 4SM -TSRA BR BKN050CB
      TEMPO 3014/3018 2SM -TSRA BR OVC025CB=

USA.gov is the U.S. government's official web portal to all federal, state and local government web resources and services.